MMCU 090344Z 21005KT 10SM SCT090 BKN200 11/M01 A3008 RMK 8/072= 090345

MMCU 090240Z 00000KT 10SM SCT090 BKN200 13/00 A3007 RMK SLP157 52016 953 8/072= 090241

MMCU 090142Z 30003KT 10SM SCT090 BKN200 14/01 A3006 RMK 8/072= 090143

MMCU 090040Z 33004KT 10SM FEW030 BKN090 BKN200 17/00 A3004 RMK 8/472= 090041

MMCU 082341Z 11004KT 10SM FEW030 BKN090 BKN200 20/00 A3002 RMK SLP127 57009 951 8/472= 082342

MMCU 082241Z 15005KT 10SM FEW030 BKN090 BKN200 23/M07 A3002 RMK 8/172= 082242

MMCU 082149Z 09007KT 10SM SCT030 BKN090 BKN200 21/M01 A3003 RMK 8/172= 082150

MMCU 082040Z 08004KT 10SM SCT030 BKN080 BKN200 21/M02 A3005 RMK SLP133 57035 906 8/178= 082041

MMCU 081940Z 09005KT 10SM BKN080 BKN200 21/M02 A3008 RMK 8/078= 081940

MMCU 081843Z 00000KT 10SM BKN090 BKN200 18/M01 A3013 RMK 8/078= 081844

MMCU 081745Z 00000KT 10SM SCT090 OVC200 18/01 A3019 RMK SLP176 57002 915 8/072 BINOVC= 081748

MMCU 081540Z 00000KT 10SM BKN090 OVC200 10/00 A3019 RMK 8/072= 081540

MMCU 081441Z 19005KT 10SM BKN080 BKN200 07/M01 A3018 RMK SLP190 52012 918 8/078= 081444

MMCU 081340Z 18004KT 10SM SCT080 BKN200 05/M01 A3015 RMK 8/078= 081340

MMCU 081243Z 00000KT 10SM FEW090 SCT200 05/M01 A3014 RMK 8/078= 081244

MMCU 081143Z 18006KT 10SM FEW090 SCT200 04/M02 A3014 RMK SLP168 5//// 9// 8/078 RTS= 081144

MMCU 080348Z 19009KT 10SM FEW100 SCT200 11/M01 A3011 RMK 8/028= 080349

MMCU 080240Z 00000KT 10SM FEW100 SCT200 13/M01 A3009 RMK SLP158 52018 965 8/028= 080240

MMCU 080141Z 28005KT 10SM FEW100 FEW200 13/00 A3007 RMK 8/028= 080141

MMCU 080040Z 06005KT 10SM FEW100 FEW200 16/M02 A3005 RMK 8/028= 080041

MMCU 072343Z 06006KT 10SM FEW100 20/M01 A3003 RMK SLP117 57002 983 8/020= 072352

MMCU 072240Z 08007KT 10SM SKC 22/M03 A3002 RMK ISOL AC= 072246

MMCU 072141Z 15004KT 10SM SKC 23/M06 A3002 RMK ISOL AC= 072141

MMCU 072040Z 00000KT 10SM SKC 22/M06 A3003 RMK SLP119 57026 986= 072042

MMCU 071940Z 22005KT 10SM SKC 22/M04 A3005= 071941

MMCU 071840Z 26006KT 10SM SKC 20/M03 A3008 RMK ISOL CI S= 071840

MMCU 071740Z 24004KT 10SM SKC 19/M02 A3011 RMK SLP154 52001 990= 071741

MMCU 071640Z 24003KT 10SM SKC 16/01 A3013= 071640

MMCU 071540Z 18003KT 10SM SKC 13/02 A3013 RMK HZY= 071540

MMCU 071441Z 16003KT 10SM SKC 07/02 A3012 RMK SLP176 5//// 989 HZY= 071442

MMCU 071342Z 20004KT 10SM SKC 07/01 A3010 RMK ISOL CI= 071343

MMCU 071240Z 00000KT 10SM FEW200 04/01 A3009 RMK 8/002 HZY RTS= 071241

MMCU 070341Z 19008KT 10SM SKC 13/M01 A3017= 070341

MMCU 070245Z 00000KT 10SM SKC 11/M01 A3017 RMK SLP194 52008 932= 070245

MMCU 070141Z 09007KT 10SM SKC 15/M02 A3016= 070141

MMCU 070040Z 07008KT 10SM SKC 16/M02 A3015 RMK VC CU/AC= 070041

MMCU 062342Z 09008KT 10SM SKC 19/M03 A3014 RMK SLP160 57005 940 VC CU= 062343

MMCU 062241Z 08011KT 10SM SKC 21/M04 A3013 RMK VC CU= 062241

MMCU 062151Z 08007KT 10SM SKC 21/M04 A3014 RMK VC CU= 062152

MMCU 062042Z 05007KT 10SM SKC 21/M03 A3015 RMK SLP160 57033 940 VC CU= 062042

MMCU 061942Z 07004G14KT 10SM SKC 21/M03 A3017 RMK VC CU= 061943

MMCU 061840Z 03007KT 10SM SKC 20/M03 A3023 RMK VC CU= 061841

MMCU 061744Z 00000KT 10SM SKC 19/M02 A3026 RMK SLP198 52005 940 ISOL AC= 061746

MMCU 061642Z 00000KT 10SM SKC 15/M02 A3027 RMK ISOL AC HZY= 061642

MMCU 061540Z 18003KT 10SM SKC 12/M01 A3027 RMK ISOL AC HZY= 061540

MMCU 061441Z 22003KT 10SM SKC 07/M01 A3025 RMK SLP217 5//// 940 ISOL AC= 061442

MMCU 061341Z 00000KT 10SM SKC 04/M02 A3022 RMK ISOL AC= 061341

MMCU 061240Z 20009KT 10SM FEW200 05/M02 A3019 RMK 8/002 RTS= 061240

MMCU 060341Z 19004KT 10SM FEW200 10/02 A3008 RMK 8/002= 060342

MMCU 060240Z 20005KT 10SM FEW200 14/03 A3006 RMK SLP137 52018 972 8/002 ISOL AC= 060242